Flight Track Log - Related Links

Times and Time Zones

All times are in EDT time to prevent confusion due to time zone crossing. See the N8060R flight status page for this flight to view local times or setup timezone preferences in your user account.

Time Position Orientation Groundspeed Altitude Reporting Facility
EDT Latitude Longitude Course Direction KTS MPH feet Rate Location/Type
Sat 04:38:41 PM 39.6444 -83.7336 104° East 79 91 5,500  Level Indianapolis Center
Sat 04:39:15 PM 39.6417 -83.7192 104° East 80 92 5,600 358 Climbing Indianapolis Center
Sat 04:39:48 PM 39.6364 -83.7028 113° Southeast 75 86 5,900 387 Climbing Indianapolis Center
Sat 04:40:17 PM 39.6336 -83.6931 110° East 78 90 6,000 295 Climbing Indianapolis Center
Sat 04:40:49 PM 39.6297 -83.6775 108° East 78 90 6,200 393 Climbing Indianapolis Center
Sat 04:41:18 PM 39.6272 -83.6656 105° East 78 90 6,400 400 Climbing Indianapolis Center
Sat 04:41:49 PM 39.6214 -83.6494 115° Southeast 80 92 6,600 290 Climbing Indianapolis Center
Sat 04:42:20 PM 39.6194 -83.6397 105° East 78 90 6,700 393 Climbing Indianapolis Center
Sat 04:42:50 PM 39.6150 -83.6242 110° East 74 85 7,000 393 Climbing Indianapolis Center
Sat 04:43:21 PM 39.6122 -83.6150 111° Southeast 75 86 7,100 197 Climbing Indianapolis Center
Sat 04:43:51 PM 39.6061 -83.6014 120° Southeast 71 82 7,200 295 Climbing Indianapolis Center
Sat 04:44:22 PM 39.6033 -83.5872 104° East 72 83 7,400 197 Climbing Indianapolis Center
Sat 04:44:52 PM 39.6019 -83.5739 98° East 76 87 7,400 97 Level Indianapolis Center
Sat 04:45:24 PM 39.5969 -83.5583 113° Southeast 79 91 7,500 82 Climbing Indianapolis Center
Sat 04:46:05 PM 39.5922 -83.5347 105° East 96 110 7,500  Level Indianapolis Center
Sat 04:46:25 PM 39.5911 -83.5239 98° East 93 107 7,500 146 Level Indianapolis Center
Sat 04:47:27 PM 39.5825 -83.4878 107° East 102 117 7,700 98 Climbing Indianapolis Center
Sat 04:48:28 PM 39.5686 -83.4542 118° Southeast 105 121 7,700  Level Indianapolis Center
Sat 04:49:30 PM 39.5636 -83.4161 100° East 106 122 7,700  Level Indianapolis Center
Sat 04:50:31 PM 39.5603 -83.3750 96° East 112 129 7,700 -49 Level Indianapolis Center
Sat 04:51:32 PM 39.5583 -83.3319 93° East 117 135 7,600 -49 Descending Indianapolis Center
Sat 04:52:34 PM 39.5556 -83.2878 95° East 121 139 7,600  Level Indianapolis Center
Sat 04:53:35 PM 39.5547 -83.2450 91° East 119 137 7,600 -49 Level Indianapolis Center
Sat 04:54:37 PM 39.5511 -83.2008 96° East 121 139 7,500 -98 Descending Indianapolis Center
Sat 04:55:38 PM 39.5489 -83.1597 94° East 117 135 7,400 -49 Descending Indianapolis Center
Sat 04:56:39 PM 39.5439 -83.1111 98° East 115 132 7,400  Level Indianapolis Center
Sat 04:57:41 PM 39.5383 -83.0708 100° East 113 130 7,400  Level Indianapolis Center
Sat 04:58:42 PM 39.5331 -83.0292 99° East 115 132 7,400 49 Level Indianapolis Center
Sat 04:59:44 PM 39.5294 -82.9878 96° East 116 133 7,500 49 Climbing Indianapolis Center
Sat 05:00:45 PM 39.5242 -82.9475 100° East 113 130 7,500  Level Indianapolis Center
Sat 05:01:47 PM 39.5217 -82.9058 94° East 114 131 7,500 -98 Level Indianapolis Center
Sat 05:02:48 PM 39.5161 -82.8653 100° East 114 131 7,300 -49 Descending Indianapolis Center
Sat 05:03:50 PM 39.5125 -82.8247 97° East 112 129 7,400 49 Climbing Indianapolis Center
Sat 05:04:51 PM 39.5078 -82.7853 99° East 112 129 7,400 -49 Level Indianapolis Center
Sat 05:05:53 PM 39.5058 -82.7433 93° East 114 131 7,300  Descending Indianapolis Center
Sat 05:06:54 PM 39.5050 -82.7000 91° East 119 137 7,400 49 Climbing Indianapolis Center
Sat 05:07:56 PM 39.5003 -82.6517 97° East 115 132 7,400  Level Indianapolis Center
Sat 05:08:57 PM 39.4964 -82.6086 97° East 118 136 7,400  Level Indianapolis Center
Sat 05:09:58 PM 39.4906 -82.5669 100° East 118 136 7,400  Level Indianapolis Center
Sat 05:11:00 PM 39.4825 -82.5253 104° East 119 137 7,400  Level Indianapolis Center
Sat 05:12:01 PM 39.4764 -82.4825 100° East 119 137 7,400 49 Level Indianapolis Center
Sat 05:13:03 PM 39.4697 -82.4406 102° East 119 137 7,500 49 Climbing Indianapolis Center
Sat 05:14:04 PM 39.4639 -82.4000 101° East 116 133 7,500  Level Indianapolis Center
Sat 05:15:06 PM 39.4556 -82.3586 105° East 117 135 7,500  Level Indianapolis Center
Sat 05:16:07 PM 39.4461 -82.3167 106° East 120 138 7,500  Level Indianapolis Center
Sat 05:17:09 PM 39.4428 -82.2719 95° East 121 139 7,500  Level Indianapolis Center
Sat 05:18:10 PM 39.4353 -82.2281 102° East 117 135 7,500 -49 Level Indianapolis Center
Sat 05:19:12 PM 39.4311 -82.1856 97° East 118 136 7,400 -49 Descending Indianapolis Center
Sat 05:20:13 PM 39.4258 -82.1431 99° East 118 136 7,400 49 Level Indianapolis Center
Sat 05:21:15 PM 39.4261 -82.1017 89° East 117 135 7,500 98 Climbing Indianapolis Center
Sat 05:22:16 PM 39.4197 -82.0603 101° East 117 135 7,600 49 Climbing Indianapolis Center
Sat 05:23:18 PM 39.4158 -82.0189 97° East 116 133 7,600 -49 Level Indianapolis Center
Sat 05:24:19 PM 39.4086 -81.9769 103° East 119 137 7,500 -49 Descending Indianapolis Center
Sat 05:25:21 PM 39.4042 -81.9256 96° East 120 138 7,500 49 Level Indianapolis Center
Sat 05:26:22 PM 39.3989 -81.8833 99° East 119 137 7,600 49 Climbing Indianapolis Center
Sat 05:27:24 PM 39.3961 -81.8419 95° East 117 135 7,600  Level Indianapolis Center
Sat 05:28:26 PM 39.3908 -81.7992 99° East 119 137 7,600  Level Indianapolis Center
Sat 05:29:27 PM 39.3853 -81.7572 100° East 119 137 7,600  Level Indianapolis Center
Sat 05:30:29 PM 39.3806 -81.7144 98° East 119 137 7,600  Level Indianapolis Center
Sat 05:31:30 PM 39.3786 -81.6706 93° East 121 139 7,600 -49 Level Indianapolis Center
Sat 05:32:32 PM 39.3722 -81.6306 102° East 117 135 7,500 -48 Descending Indianapolis Center
Sat 05:33:34 PM 39.3678 -81.5875 98° East 118 136 7,500  Level Indianapolis Center
Sat 05:34:35 PM 39.3592 -81.5367 102° East 120 138 7,500  Level Indianapolis Center
Sat 05:35:37 PM 39.3553 -81.4911 96° East 125 144 7,500  Level Indianapolis Center
Sat 05:36:39 PM 39.3469 -81.4492 104° East 122 140 7,500  Level Indianapolis Center
Sat 05:37:40 PM 39.3417 -81.4069 99° East 120 138 7,500  Level Indianapolis Center
Sat 05:38:42 PM 39.3361 -81.3647 100° East 120 138 7,500  Level Indianapolis Center
Sat 05:39:44 PM 39.3294 -81.3219 101° East 121 139 7,500  Level Indianapolis Center
Sat 05:40:45 PM 39.3222 -81.2797 102° East 121 139 7,500 -49 Level Indianapolis Center
Sat 05:41:47 PM 39.3156 -81.2375 102° East 120 138 7,400  Descending Indianapolis Center
Sat 05:42:49 PM 39.3083 -81.1861 100° East 121 139 7,500 48 Climbing Indianapolis Center
Sat 05:43:51 PM 39.3069 -81.1447 92° East 118 136 7,500  Level Indianapolis Center
Sat 05:44:52 PM 39.3003 -81.1036 102° East 117 135 7,500  Level Indianapolis Center
Sat 05:45:54 PM 39.2942 -81.0608 100° East 118 136 7,500  Level Indianapolis Center
Sat 05:46:56 PM 39.2900 -81.0189 97° East 119 137 7,500 -49 Level Indianapolis Center
Sat 05:47:57 PM 39.2797 -80.9792 108° East 117 135 7,400  Descending Indianapolis Center
Sat 05:48:59 PM 39.2756 -80.9367 97° East 118 136 7,500 97 Climbing Indianapolis Center
Sat 05:50:01 PM 39.2700 -80.8953 100° East 118 136 7,600 49 Climbing Indianapolis Center
Sat 05:51:02 PM 39.2653 -80.8436 97° East 119 137 7,600 -49 Level Indianapolis Center
Sat 05:52:04 PM 39.2614 -80.7994 96° East 121 139 7,500 -97 Descending Indianapolis Center
Sat 05:53:06 PM 39.2569 -80.7569 98° East 121 139 7,400 -48 Descending Indianapolis Center
Sat 05:54:08 PM 39.2522 -80.7144 98° East 120 138 7,400 49 Level Indianapolis Center
Sat 05:55:09 PM 39.2469 -80.6714 99° East 121 139 7,500 49 Climbing Indianapolis Center
Sat 05:56:11 PM 39.2400 -80.6308 102° East 118 136 7,500 48 Level Indianapolis Center
Sat 05:57:13 PM 39.2314 -80.5894 105° East 118 136 7,600 49 Climbing Indianapolis Center
Sat 05:58:14 PM 39.2203 -80.5494 110° East 117 135 7,600 -49 Level Indianapolis Center
Sat 05:59:16 PM 39.2142 -80.5039 100° East 122 140 7,500 -49 Descending Indianapolis Center
Sat 06:00:17 PM 39.2094 -80.4522 97° East 123 142 7,500  Level Indianapolis Center
Sat 06:01:19 PM 39.2075 -80.4058 93° East 126 145 7,500 Level Indianapolis Center
Sat 06:03:00 PM 39.1918 -80.3337 104° East  Level Estimated
Sat 06:10:00 PM 39.1109 -80.0404 109° East  Level FlightAware Approximate
Sat 06:11:00 PM 39.0993 -79.9985 110° East  Level FlightAware Approximate
Sat 06:12:00 PM 39.0877 -79.9567 110° East  Level FlightAware Approximate
Sat 06:13:00 PM 39.0760 -79.9148 110° East  Level FlightAware Approximate
Sat 06:14:00 PM 39.0644 -79.8730 110° East  Level FlightAware Approximate
Sat 06:15:00 PM 39.0527 -79.8312 110° East  Level FlightAware Approximate
Sat 06:16:00 PM 39.0410 -79.7895 110° East  Level FlightAware Approximate
Sat 06:17:00 PM 39.0293 -79.7477 110° East  Level FlightAware Approximate
Sat 06:18:00 PM 39.0176 -79.7059 110° East  Level FlightAware Approximate
Sat 06:19:00 PM 39.0058 -79.6642 110° East  Level FlightAware Approximate
Sat 06:20:00 PM 38.9941 -79.6225 110° East  Level FlightAware Approximate
Sat 06:21:00 PM 38.9823 -79.5808 110° East  Level FlightAware Approximate
Sat 06:22:00 PM 38.9705 -79.5391 110° East  Level FlightAware Approximate
Sat 06:22:17 PM 39.0806 -79.5197 107° East 119 137 7,600  Level Washington Center
Sat 06:23:00 PM 38.9587 -79.4974 110° East  Level FlightAware Approximate
Sat 06:23:17 PM 39.0672 -79.4817 114° Southeast 119 137 7,500  Level Washington Center
Sat 06:24:00 PM 38.9461 -79.4498 107° East  Level FlightAware Approximate
Sat 06:24:15 PM 39.0583 -79.4411 106° East 119 137 7,600  Level Washington Center
Sat 06:25:00 PM 38.9361 -79.4074 107° East  Level FlightAware Approximate
Sat 06:25:16 PM 39.0450 -79.3950 110° East 129 148 7,600  Level Washington Center
Sat 06:26:00 PM 38.9262 -79.3649 107° East  Level FlightAware Approximate
Sat 06:26:16 PM 39.0381 -79.3544 102° East 129 148 7,500  Level Washington Center
Sat 06:27:00 PM 38.9162 -79.3225 107° East  Level FlightAware Approximate
Sat 06:27:17 PM 39.0308 -79.3167 104° East 123 142 7,600  Level Washington Center
Sat 06:28:17 PM 39.0239 -79.2736 102° East 117 135 7,500  Descending Washington Center
Sat 06:29:15 PM 39.0167 -79.2383 105° East 112 129 7,600 50 Climbing Washington Center
Sat 06:30:16 PM 39.0033 -79.1978 113° Southeast 112 129 7,600  Level Washington Center
Sat 06:31:16 PM 38.9919 -79.1544 109° East 112 129 7,600  Level Washington Center
Sat 06:32:15 PM 38.9808 -79.1111 108° East 112 129 7,600 -50 Level Washington Center
Sat 06:33:15 PM 38.9819 -79.0658 88° East 118 136 7,500  Descending Washington Center
Sat 06:34:16 PM 38.9644 -79.0250 119° Southeast 123 142 7,600 49 Climbing Washington Center
Sat 06:35:17 PM 38.9511 -78.9842 113° Southeast 123 142 7,600 -50 Level Washington Center
Sat 06:36:15 PM 38.9419 -78.9383 104° East 128 147 7,500  Descending Washington Center
Sat 06:37:16 PM 38.9306 -78.8981 110° East 128 147 7,600 50 Climbing Washington Center
Sat 06:38:15 PM 38.9172 -78.8547 112° Southeast 128 147 7,600 50 Level Washington Center
Sat 06:39:16 PM 38.9014 -78.8167 118° Southeast 128 147 7,700 49 Climbing Washington Center
Sat 06:40:17 PM 38.8922 -78.7736 105° East 128 147 7,700 -50 Level Washington Center
Sat 06:41:15 PM 38.8850 -78.7306 102° East 128 147 7,600 -51 Descending Washington Center
Sat 06:42:15 PM 38.8714 -78.6872 112° Southeast 128 147 7,600  Level Washington Center
Sat 06:43:16 PM 38.8622 -78.6442 105° East 128 147 7,600 -50 Level Washington Center
Sat 06:44:16 PM 38.8486 -78.6089 116° Southeast 128 147 7,500 -99 Descending Washington Center
Sat 06:45:17 PM 38.8350 -78.5631 111° Southeast 117 135 7,400 -50 Descending Washington Center
Sat 06:46:15 PM 38.8236 -78.5200 109° East 117 135 7,400  Level Washington Center
Sat 06:47:16 PM 38.8100 -78.4822 115° Southeast 117 135 7,400  Level Washington Center
Sat 06:48:16 PM 38.7983 -78.4392 109° East 117 135 7,400 -50 Level Washington Center
Sat 06:49:17 PM 38.7892 -78.3933 104° East 117 135 7,300 -50 Descending Washington Center
Sat 06:50:15 PM 38.7775 -78.3478 108° East 128 147 7,300  Level Washington Center
Sat 06:51:16 PM 38.7681 -78.3047 106° East 128 147 7,300 -49 Level Washington Center
Sat 06:52:17 PM 38.7567 -78.2592 108° East 128 147 7,200 -198 Descending Washington Center
Sat 06:53:17 PM 38.7450 -78.2189 110° East 128 147 6,900 -413 Descending Washington Center
Sat 06:54:57 PM 38.7167 -78.1500 118° Southeast 122 140 6,100 -506 Descending Potomac TRACON
Sat 06:56:03 PM 38.7167 -78.1000 90° East 125 144 5,500 -500 Descending Potomac TRACON
Sat 06:56:57 PM 38.7000 -78.0667 123° Southeast 121 139 5,100 -421 Descending Potomac TRACON
Sat 06:57:57 PM 38.6833 -78.0167 113° Southeast 117 135 4,700 -450 Descending Potomac TRACON
Sat 06:58:57 PM 38.6833 -77.9833 90° East 116 133 4,200 -450 Descending Potomac TRACON
Sat 06:59:57 PM 38.6667 -77.9500 123° Southeast 117 135 3,800 -474 Descending Potomac TRACON
Sat 07:00:51 PM 38.6500 -77.9167 123° Southeast 117 135 3,300 -556 Descending Potomac TRACON
Sat 07:02:00 PM 38.6303 -77.8741 113° Southeast  Level FlightAware Approximate
Sat 07:09:00 PM 38.5863 -77.7106 104° East  Level Estimated
Sat 07:10:00 PM 38.5863 -77.7106 104° East  Level Estimated
Sat 07:11:00 PM 38.5863 -77.7106 104° East  Level Estimated
Sat 07:12:00 PM 38.5863 -77.7106 104° East  Level Estimated
Sat 07:13:00 PM 38.5863 -77.7106 104° East  Level Estimated
Sat 07:14:00 PM 38.5863 -77.7106 104° East  Level Estimated
Sat 07:15:00 PM 38.5863 -77.7106 104° East  Level Estimated
Sat 07:16:00 PM 38.5863 -77.7106 104° East  Level Estimated
Sat 07:17:00 PM 38.5863 -77.7106 104° East  Level Estimated
Sat 07:18:00 PM 38.5863 -77.7106 104° East  Level Estimated
Sat 07:19:00 PM 38.5863 -77.7106 104° East  Level Estimated
Sat 07:20:00 PM 38.5863 -77.7106 104° East  Level Estimated
Sat 07:21:00 PM 38.5863 -77.7106 104° East  Level Estimated
Sat 07:22:00 PM 38.5863 -77.7106 104° East  Level Estimated

Login

Don't have an account? Register now (free) for customized features, flight alerts, and more!